Time;durP1;ratioP1;P1;durP2;ratioP2;P2;SDS_P1;SDS_P2;PMS_P1;PMS_P2;Temp;Humidity;BMP_temperature;BMP_pressure;BME280_temperature;BME280_humidity;BME280_pressure;Samples;Min_cycle;Max_cycle;Signal;HPM_P1;HPM_P2
2021/12/23 00:01:21;;;;;;;45.47;25.35;;;-2.80;99.90;;;;;;5064923;28;20230;-49
2021/12/23 00:03:49;;;;;;;39.30;23.88;;;-2.80;99.90;;;;;;5062334;28;20237;-47
2021/12/23 00:06:16;;;;;;;29.95;21.17;;;-2.80;99.90;;;;;;5060618;28;20261;-47
2021/12/23 00:08:43;;;;;;;38.25;23.65;;;-3.00;99.90;;;;;;5060793;28;20501;-44
2021/12/23 00:11:11;;;;;;;38.90;23.13;;;-3.00;99.90;;;;;;5060538;28;20278;-46
2021/12/23 00:13:48;;;;;;;41.72;25.00;;;-3.00;99.90;;;;;;5060224;28;20200;-46
2021/12/23 00:16:29;;;;;;;35.33;21.58;;;-3.00;99.90;;;;;;5059879;28;20199;-46
2021/12/23 00:19:03;;;;;;;38.05;22.45;;;-3.00;99.90;;;;;;5060773;28;20203;-46
2021/12/23 00:24:17;;;;;;;41.75;21.95;;;-3.20;99.90;;;;;;5060785;28;20207;-48
2021/12/23 00:26:45;;;;;;;36.40;21.30;;;-3.20;99.90;;;;;;5060186;28;20587;-45
2021/12/23 00:29:12;;;;;;;38.60;23.70;;;-3.20;99.90;;;;;;5060410;28;20257;-49
2021/12/23 00:31:39;;;;;;;38.33;20.98;;;-3.20;99.90;;;;;;5060396;28;20547;-45
2021/12/23 00:34:09;;;;;;;31.40;21.42;;;-3.10;99.90;;;;;;5060533;28;20199;-46
2021/12/23 00:36:38;;;;;;;36.20;24.05;;;-3.20;99.90;;;;;;5059940;28;20250;-45
2021/12/23 00:39:08;;;;;;;37.53;21.63;;;-3.10;99.90;;;;;;5060926;28;20211;-45
2021/12/23 00:41:36;;;;;;;38.53;21.98;;;-3.20;99.90;;;;;;5060330;28;20219;-46
2021/12/23 00:44:04;;;;;;;42.75;22.48;;;-3.20;99.90;;;;;;5060536;28;20506;-45
2021/12/23 00:46:31;;;;;;;35.42;19.77;;;-3.20;99.90;;;;;;5060094;28;20262;-46
2021/12/23 00:48:58;;;;;;;41.22;22.20;;;-3.20;99.90;;;;;;5061294;28;20200;-45
2021/12/23 00:51:26;;;;;;;38.30;23.67;;;-3.20;99.90;;;;;;5062170;28;20528;-46
2021/12/23 00:54:02;;;;;;;29.85;19.80;;;-3.20;99.90;;;;;;5061613;28;20200;-45
2021/12/23 00:56:39;;;;;;;37.30;21.38;;;-3.10;99.90;;;;;;5060290;28;20506;-46
2021/12/23 00:59:08;;;;;;;34.22;20.30;;;-3.10;99.90;;;;;;5059998;28;20203;-44
2021/12/23 01:01:36;;;;;;;37.78;22.30;;;-3.00;99.90;;;;;;5060170;28;20223;-47
2021/12/23 01:04:04;;;;;;;39.63;20.80;;;-2.90;99.90;;;;;;5065115;28;20220;-45
2021/12/23 01:06:31;;;;;;;34.75;20.80;;;-2.90;99.90;;;;;;5065216;28;20219;-47
2021/12/23 01:08:58;;;;;;;46.35;21.33;;;-3.00;99.90;;;;;;5062170;28;20196;-45
2021/12/23 01:11:27;;;;;;;34.97;21.52;;;-3.00;99.90;;;;;;5060578;28;20453;-44
2021/12/23 01:14:03;;;;;;;31.13;20.52;;;-3.00;99.90;;;;;;5059744;28;20204;-46
2021/12/23 01:19:18;;;;;;;38.40;20.63;;;-3.10;99.90;;;;;;5060109;28;20223;-45
2021/12/23 01:21:45;;;;;;;28.35;18.67;;;-3.30;99.90;;;;;;5059962;28;20281;-46
2021/12/23 01:24:13;;;;;;;35.38;23.13;;;-3.30;99.90;;;;;;5059420;28;20250;-48
2021/12/23 01:26:41;;;;;;;32.38;18.63;;;-3.20;99.90;;;;;;5063255;28;20289;-46
2021/12/23 01:29:09;;;;;;;35.22;22.35;;;-3.10;99.90;;;;;;5063243;28;20441;-48
2021/12/23 01:31:42;;;;;;;35.92;19.63;;;-3.10;99.90;;;;;;5063379;28;20216;-46
2021/12/23 01:34:09;;;;;;;29.70;18.55;;;-3.30;99.90;;;;;;5063361;28;20567;-45
2021/12/23 01:36:37;;;;;;;29.02;19.35;;;-3.30;99.90;;;;;;5063128;28;20388;-46
2021/12/23 01:39:04;;;;;;;32.55;18.40;;;-3.40;99.90;;;;;;5063246;28;20203;-47
2021/12/23 01:41:32;;;;;;;32.40;19.33;;;-3.40;99.90;;;;;;5063326;28;20219;-47
2021/12/23 01:43:59;;;;;;;26.85;18.00;;;-3.40;99.90;;;;;;5064062;28;20234;-46
2021/12/23 01:46:26;;;;;;;30.73;17.25;;;-3.50;99.90;;;;;;5062919;28;20224;-46
2021/12/23 01:48:54;;;;;;;26.52;15.93;;;-3.30;99.90;;;;;;5063444;28;20202;-45
2021/12/23 01:51:21;;;;;;;33.30;19.60;;;-3.20;99.90;;;;;;5062781;28;20456;-45
2021/12/23 01:53:49;;;;;;;26.05;18.23;;;-3.40;99.90;;;;;;5063327;28;20453;-46
2021/12/23 01:56:20;;;;;;;27.33;16.90;;;-3.50;99.90;;;;;;5063207;28;20199;-47
2021/12/23 01:58:47;;;;;;;24.90;16.05;;;-3.50;99.90;;;;;;5062712;28;20195;-46
2021/12/23 02:01:15;;;;;;;31.02;17.38;;;-3.50;99.90;;;;;;5063338;28;20584;-44
2021/12/23 02:03:42;;;;;;;27.02;17.38;;;-3.60;99.90;;;;;;5063623;28;20196;-45
2021/12/23 02:06:09;;;;;;;32.88;18.88;;;-3.60;99.90;;;;;;5062350;28;20203;-46
2021/12/23 02:08:38;;;;;;;30.38;18.98;;;-3.60;99.90;;;;;;5062806;28;20593;-46
2021/12/23 02:11:09;;;;;;;31.50;18.55;;;-3.60;99.90;;;;;;5062250;28;20200;-46
2021/12/23 02:13:37;;;;;;;33.63;18.88;;;-3.70;99.90;;;;;;5062340;28;20199;-46
2021/12/23 02:16:06;;;;;;;33.47;19.13;;;-3.80;99.90;;;;;;5062104;28;20230;-46
2021/12/23 02:18:35;;;;;;;31.58;17.42;;;-3.70;99.90;;;;;;5062366;28;20207;-46
2021/12/23 02:21:04;;;;;;;28.95;18.52;;;-3.70;99.90;;;;;;5062790;28;20239;-45
2021/12/23 02:23:34;;;;;;;30.48;18.98;;;-3.60;99.90;;;;;;5062323;28;20208;-44
2021/12/23 02:26:02;;;;;;;31.67;18.45;;;-3.70;99.90;;;;;;5062365;28;20219;-46
2021/12/23 02:28:29;;;;;;;35.33;20.55;;;-3.50;99.90;;;;;;5062071;28;20231;-46
2021/12/23 02:30:56;;;;;;;30.10;19.90;;;-3.50;99.90;;;;;;5063064;28;20196;-45
2021/12/23 02:33:26;;;;;;;26.60;16.50;;;-3.60;99.90;;;;;;5064930;28;20267;-47
2021/12/23 02:35:57;;;;;;;33.00;20.40;;;-3.70;99.90;;;;;;5064901;28;20230;-46
2021/12/23 02:38:24;;;;;;;30.83;18.10;;;-3.80;99.90;;;;;;5062982;28;20293;-47
2021/12/23 02:40:52;;;;;;;29.38;17.20;;;-3.70;99.90;;;;;;5063329;28;20435;-45
2021/12/23 02:43:25;;;;;;;28.90;18.23;;;-3.60;99.90;;;;;;5061837;28;20206;-46
2021/12/23 02:45:59;;;;;;;29.83;15.88;;;-3.60;99.90;;;;;;5061926;28;20222;-47
2021/12/23 02:48:34;;;;;;;27.00;18.52;;;-3.60;99.90;;;;;;5061528;28;20231;-47
2021/12/23 02:51:08;;;;;;;29.35;18.05;;;-3.60;99.90;;;;;;5064695;28;20437;-46
2021/12/23 02:53:36;;;;;;;29.45;17.42;;;-3.70;99.90;;;;;;5065576;28;20959;-46
2021/12/23 02:56:06;;;;;;;34.22;17.60;;;-3.60;99.90;;;;;;5062874;28;20199;-46
2021/12/23 02:58:33;;;;;;;28.10;18.35;;;-3.50;99.90;;;;;;5062054;28;20206;-46
2021/12/23 03:01:04;;;;;;;26.98;18.17;;;-3.50;99.90;;;;;;5061537;28;20191;-46
2021/12/23 03:03:32;;;;;;;36.25;20.48;;;-3.60;99.90;;;;;;5061582;28;20266;-46
2021/12/23 03:05:59;;;;;;;36.63;20.50;;;-3.70;99.90;;;;;;5061316;28;20215;-47
2021/12/23 03:08:51;;;;;;;30.42;17.02;;;-3.70;99.90;;;;;;5061883;28;20553;-45
2021/12/23 03:11:22;;;;;;;31.38;16.55;;;-3.60;99.90;;;;;;5061528;28;20219;-45
2021/12/23 03:13:49;;;;;;;22.73;15.85;;;-3.60;99.90;;;;;;5061635;28;20204;-45
2021/12/23 03:16:25;;;;;;;20.40;13.80;;;-3.50;99.90;;;;;;5060879;28;20199;-46
2021/12/23 03:18:52;;;;;;;20.80;15.45;;;-3.60;99.90;;;;;;5061644;28;20226;-46
2021/12/23 03:21:20;;;;;;;25.67;16.73;;;-3.60;99.90;;;;;;5061474;28;20219;-45
2021/12/23 03:23:47;;;;;;;23.35;15.35;;;-3.60;99.90;;;;;;5061715;28;20391;-47
2021/12/23 03:26:14;;;;;;;29.27;17.42;;;-3.70;99.90;;;;;;5061625;28;20207;-45
2021/12/23 03:28:41;;;;;;;27.00;16.27;;;-3.70;99.90;;;;;;5061727;28;20479;-45
2021/12/23 03:31:09;;;;;;;28.73;16.23;;;-3.60;99.90;;;;;;5061607;28;20235;-46
2021/12/23 03:33:36;;;;;;;34.78;17.20;;;-3.70;99.90;;;;;;5061847;28;20258;-44
2021/12/23 03:36:04;;;;;;;20.63;14.73;;;-3.70;99.90;;;;;;5063105;28;20195;-48
2021/12/23 03:38:32;;;;;;;22.52;13.73;;;-3.80;99.90;;;;;;5062486;28;20356;-45
2021/12/23 03:40:59;;;;;;;31.25;18.08;;;-3.70;99.90;;;;;;5063320;28;20211;-44
2021/12/23 03:43:28;;;;;;;23.05;15.85;;;-3.80;99.90;;;;;;5064589;28;20200;-48
2021/12/23 03:45:57;;;;;;;30.02;15.07;;;-3.70;99.90;;;;;;5061078;28;20203;-46
2021/12/23 03:48:24;;;;;;;26.00;15.20;;;-3.70;99.90;;;;;;5060956;28;20223;-46
2021/12/23 03:50:52;;;;;;;24.23;14.82;;;-3.70;99.90;;;;;;5063387;28;20203;-45
2021/12/23 03:53:19;;;;;;;21.98;14.45;;;-3.70;99.90;;;;;;5063329;28;20393;-46
2021/12/23 03:55:47;;;;;;;23.58;14.35;;;-3.70;99.90;;;;;;5064142;28;20199;-43
2021/12/23 03:58:14;;;;;;;26.70;15.00;;;-3.70;99.90;;;;;;5062382;28;20206;-45
2021/12/23 04:00:42;;;;;;;26.38;15.73;;;-3.70;99.90;;;;;;5060904;28;20218;-45
2021/12/23 04:03:10;;;;;;;18.95;13.82;;;-3.70;99.90;;;;;;5060541;28;20219;-49
2021/12/23 04:05:38;;;;;;;19.80;12.65;;;-3.60;99.90;;;;;;5062540;28;20233;-44
2021/12/23 04:08:06;;;;;;;18.70;10.88;;;-3.60;99.90;;;;;;5063765;28;20425;-44
2021/12/23 04:10:34;;;;;;;20.00;13.13;;;-3.50;99.90;;;;;;5064205;28;20207;-45
2021/12/23 04:13:01;;;;;;;19.85;13.13;;;-3.40;99.90;;;;;;5062291;28;20387;-46
2021/12/23 04:15:28;;;;;;;22.13;12.27;;;-3.40;99.90;;;;;;5063839;28;20199;-44
2021/12/23 04:17:56;;;;;;;22.40;13.93;;;-3.40;99.90;;;;;;5064027;28;20199;-46
2021/12/23 04:20:31;;;;;;;20.20;12.88;;;-3.40;99.90;;;;;;5065099;28;20203;-47
2021/12/23 04:22:59;;;;;;;17.83;12.05;;;-3.40;99.90;;;;;;5063654;28;20226;-46
2021/12/23 04:25:28;;;;;;;17.38;11.02;;;-3.50;99.90;;;;;;5061440;28;20460;-45
2021/12/23 04:27:58;;;;;;;17.73;11.77;;;-3.50;99.90;;;;;;5060973;28;20220;-46
2021/12/23 04:30:26;;;;;;;24.67;12.35;;;-3.40;99.90;;;;;;5061129;28;20203;-45
2021/12/23 04:32:53;;;;;;;18.45;14.00;;;-3.50;99.90;;;;;;5061173;28;20512;-47
2021/12/23 04:35:22;;;;;;;19.38;11.55;;;-3.60;99.90;;;;;;5060332;28;20222;-45
2021/12/23 04:37:49;;;;;;;16.73;11.88;;;-3.50;99.90;;;;;;5060404;28;20199;-45
2021/12/23 04:40:18;;;;;;;19.67;11.75;;;-3.50;99.90;;;;;;5060296;28;20494;-45
2021/12/23 04:42:45;;;;;;;18.58;11.50;;;-3.60;99.90;;;;;;5060610;28;20228;-45
2021/12/23 04:45:14;;;;;;;18.60;13.32;;;-3.60;99.90;;;;;;5061370;28;20211;-46
2021/12/23 04:47:41;;;;;;;19.38;12.93;;;-3.50;99.90;;;;;;5061623;28;20271;-44
2021/12/23 04:50:12;;;;;;;26.17;14.52;;;-3.50;99.90;;;;;;5061459;28;20291;-44
2021/12/23 04:52:41;;;;;;;20.48;11.65;;;-3.60;99.90;;;;;;5061372;28;20215;-44
2021/12/23 04:55:10;;;;;;;19.25;13.18;;;-3.60;99.90;;;;;;5060784;28;20425;-46
2021/12/23 04:57:37;;;;;;;19.13;12.95;;;-3.50;99.90;;;;;;5061278;28;20207;-45
2021/12/23 05:00:07;;;;;;;20.27;12.80;;;-3.50;99.90;;;;;;5062742;28;20463;-45
2021/12/23 05:02:34;;;;;;;15.60;12.00;;;-3.50;99.90;;;;;;5074109;22;20223;-44
2021/12/23 05:05:03;;;;;;;14.82;9.35;;;-3.40;99.90;;;;;;5044083;28;20286;-44
2021/12/23 05:07:31;;;;;;;20.95;12.43;;;-3.40;99.90;;;;;;5043876;28;20274;-44
2021/12/23 05:09:58;;;;;;;28.58;18.13;;;-3.30;99.90;;;;;;5043791;28;20208;-43
2021/12/23 05:12:25;;;;;;;28.23;15.00;;;-3.40;99.90;;;;;;5043300;28;20263;-45
2021/12/23 05:14:52;;;;;;;19.55;11.90;;;-3.30;99.90;;;;;;5043354;28;20402;-45
2021/12/23 05:17:20;;;;;;;25.33;14.73;;;-3.30;99.90;;;;;;5042748;28;20222;-45
2021/12/23 05:19:47;;;;;;;28.27;15.95;;;-3.20;99.90;;;;;;5043602;28;20247;-44
2021/12/23 05:22:14;;;;;;;26.35;16.52;;;-3.20;99.90;;;;;;5042891;28;20228;-45
2021/12/23 05:24:41;;;;;;;24.77;15.25;;;-3.20;99.90;;;;;;5043364;28;20204;-44
2021/12/23 05:27:09;;;;;;;35.67;16.88;;;-3.20;99.90;;;;;;5043479;28;20200;-44
2021/12/23 05:29:36;;;;;;;21.33;11.73;;;-3.10;99.90;;;;;;5043966;28;20213;-47
2021/12/23 05:32:04;;;;;;;23.88;13.57;;;-3.00;99.90;;;;;;5043274;28;20217;-45
2021/12/23 05:34:31;;;;;;;23.23;14.55;;;-2.90;99.90;;;;;;5042963;28;20220;-43
2021/12/23 05:36:58;;;;;;;29.38;17.45;;;-2.90;99.90;;;;;;5042517;28;20195;-47
2021/12/23 05:39:26;;;;;;;26.98;14.45;;;-2.80;99.90;;;;;;5025314;28;20262;-45
2021/12/23 05:41:53;;;;;;;31.55;18.17;;;-2.80;99.90;;;;;;5042540;28;20458;-46
2021/12/23 05:44:20;;;;;;;24.90;14.88;;;-2.80;99.90;;;;;;5042845;28;20200;-45
2021/12/23 05:46:48;;;;;;;20.98;15.27;;;-2.80;99.90;;;;;;5043236;28;20200;-45
2021/12/23 05:49:15;;;;;;;22.80;10.95;;;-2.80;99.90;;;;;;5043317;28;20270;-44
2021/12/23 05:51:43;;;;;;;15.55;9.93;;;-2.80;99.90;;;;;;5043051;28;20216;-46
2021/12/23 05:54:10;;;;;;;17.35;9.43;;;-2.80;99.90;;;;;;5042135;28;20224;-47
2021/12/23 05:56:37;;;;;;;13.13;8.65;;;-2.80;99.90;;;;;;5042352;28;20204;-46
2021/12/23 05:59:05;;;;;;;11.95;8.38;;;-2.80;99.90;;;;;;5042321;28;20231;-46
2021/12/23 06:01:33;;;;;;;23.42;11.23;;;-2.80;99.90;;;;;;5042269;28;20200;-47
2021/12/23 06:04:00;;;;;;;11.93;9.02;;;-2.80;99.90;;;;;;5042299;28;20387;-44
2021/12/23 06:06:28;;;;;;;11.95;9.82;;;-2.80;99.90;;;;;;5042329;28;20517;-45
2021/12/23 06:08:55;;;;;;;12.65;9.07;;;-2.70;99.90;;;;;;5042127;28;20232;-44
2021/12/23 06:11:22;;;;;;;11.63;8.30;;;-2.60;99.90;;;;;;5042272;28;20196;-44
2021/12/23 06:13:49;;;;;;;13.93;9.88;;;-2.60;99.90;;;;;;5042138;28;20243;-43
2021/12/23 06:16:16;;;;;;;15.75;10.18;;;-2.60;99.90;;;;;;5041690;28;20196;-42
2021/12/23 06:18:44;;;;;;;21.33;11.35;;;-2.50;99.90;;;;;;5025208;28;20230;-44
2021/12/23 06:21:11;;;;;;;20.52;10.68;;;-2.50;99.90;;;;;;5042633;28;20220;-44
2021/12/23 06:23:38;;;;;;;13.15;10.88;;;-2.50;99.90;;;;;;5042462;28;20404;-47
2021/12/23 06:26:05;;;;;;;13.02;9.77;;;-2.50;99.90;;;;;;5041783;28;20207;-47
2021/12/23 06:28:33;;;;;;;14.95;10.50;;;-2.40;99.90;;;;;;5042023;28;20228;-46
2021/12/23 06:31:00;;;;;;;15.70;11.43;;;-2.50;99.90;;;;;;5042652;28;20200;-44
2021/12/23 06:33:27;;;;;;;16.02;11.15;;;-2.40;99.90;;;;;;5041807;28;20216;-47
2021/12/23 06:35:54;;;;;;;21.40;11.68;;;-2.30;99.90;;;;;;5041443;28;20242;-46
2021/12/23 06:38:22;;;;;;;14.20;10.85;;;-2.30;99.90;;;;;;5041606;28;20519;-44
2021/12/23 06:40:50;;;;;;;16.88;10.82;;;-2.30;99.90;;;;;;5041491;28;20506;-45
2021/12/23 06:43:18;;;;;;;17.48;12.70;;;-2.30;99.90;;;;;;5041857;28;20419;-44
2021/12/23 06:45:45;;;;;;;17.95;11.32;;;-2.30;99.90;;;;;;5041538;28;20200;-42
2021/12/23 06:48:12;;;;;;;15.27;10.63;;;-2.30;99.90;;;;;;5041379;28;20244;-44
2021/12/23 06:50:40;;;;;;;18.08;12.13;;;-2.30;99.90;;;;;;5041158;28;20586;-47
2021/12/23 06:53:07;;;;;;;18.65;12.50;;;-2.20;99.90;;;;;;5041491;28;20216;-44
2021/12/23 06:55:34;;;;;;;15.75;9.88;;;-2.20;99.90;;;;;;5040809;28;20523;-43
2021/12/23 06:58:02;;;;;;;18.55;11.27;;;-2.10;99.90;;;;;;5041150;28;20204;-42
2021/12/23 07:00:33;;;;;;;19.88;12.73;;;-2.10;99.90;;;;;;5041075;28;20238;-43
2021/12/23 07:03:00;;;;;;;17.55;11.93;;;-2.10;99.90;;;;;;5041043;28;20228;-47
2021/12/23 07:05:28;;;;;;;18.48;12.90;;;-2.20;99.90;;;;;;5041225;28;20200;-44
2021/12/23 07:10:33;;;;;;;15.70;12.35;;;-2.10;99.90;;;;;;5041382;28;20206;-45
2021/12/23 07:13:01;;;;;;;19.52;14.43;;;-2.20;99.90;;;;;;5040525;28;20220;-44
2021/12/23 07:15:28;;;;;;;20.55;13.73;;;-2.10;99.90;;;;;;5041492;28;20188;-49
2021/12/23 07:17:57;;;;;;;19.30;13.90;;;-1.90;99.90;;;;;;5040773;28;20208;-47
2021/12/23 07:20:27;;;;;;;27.40;14.57;;;-1.90;99.90;;;;;;5041384;28;20204;-44
2021/12/23 07:22:55;;;;;;;23.13;15.60;;;-1.90;99.90;;;;;;5040533;28;20454;-44
2021/12/23 07:25:23;;;;;;;17.08;12.68;;;-1.80;99.90;;;;;;5040799;28;20266;-45
2021/12/23 07:27:50;;;;;;;19.83;13.15;;;-1.70;99.90;;;;;;5040297;28;20239;-44
2021/12/23 07:30:19;;;;;;;29.55;15.65;;;-1.60;99.90;;;;;;5040573;28;20433;-45
2021/12/23 07:32:48;;;;;;;30.17;16.42;;;-1.60;99.90;;;;;;5040466;28;20589;-43
2021/12/23 07:35:18;;;;;;;21.40;14.75;;;-1.60;99.90;;;;;;5041215;28;20211;-43
2021/12/23 07:37:45;;;;;;;20.40;13.63;;;-1.50;99.90;;;;;;5041065;28;20196;-44
2021/12/23 07:40:16;;;;;;;19.27;12.13;;;-1.50;99.90;;;;;;5041195;28;20200;-43
2021/12/23 07:42:53;;;;;;;22.15;13.10;;;-1.40;99.90;;;;;;5040398;28;20216;-44
2021/12/23 07:45:24;;;;;;;23.67;13.77;;;-1.30;99.90;;;;;;5040960;28;20234;-43
2021/12/23 07:47:51;;;;;;;27.35;17.33;;;-1.30;99.90;;;;;;5040006;28;20445;-47
2021/12/23 07:50:19;;;;;;;20.83;14.15;;;-1.30;99.90;;;;;;5039761;28;20196;-45
2021/12/23 07:52:46;;;;;;;25.60;14.50;;;-1.40;99.90;;;;;;5040352;28;20266;-45
2021/12/23 07:55:14;;;;;;;18.90;13.80;;;-1.30;99.90;;;;;;5039574;28;20314;-47
2021/12/23 07:57:41;;;;;;;18.50;12.95;;;-1.30;99.90;;;;;;5039466;28;20208;-45
2021/12/23 08:00:09;;;;;;;20.13;14.00;;;-1.20;99.90;;;;;;5039774;28;20196;-43
2021/12/23 08:02:36;;;;;;;17.35;13.57;;;-1.20;99.90;;;;;;5039969;28;20224;-45
2021/12/23 08:05:04;;;;;;;20.00;14.57;;;-1.20;99.90;;;;;;5040484;28;20250;-45
2021/12/23 08:07:32;;;;;;;19.05;12.48;;;-1.20;99.90;;;;;;5041132;28;20196;-45
2021/12/23 08:09:58;;;;;;;28.63;14.05;;;-1.10;99.90;;;;;;5040295;28;20223;-44
2021/12/23 08:12:31;;;;;;;18.33;14.60;;;-1.00;99.90;;;;;;5039727;28;20220;-44
2021/12/23 08:14:58;;;;;;;16.02;12.38;;;-0.90;99.90;;;;;;5039811;28;20200;-46
2021/12/23 08:17:34;;;;;;;20.42;15.20;;;-0.90;99.90;;;;;;5039260;28;20199;-46
2021/12/23 08:20:02;;;;;;;19.02;11.45;;;-0.90;99.90;;;;;;5039391;28;20249;-45
2021/12/23 08:22:30;;;;;;;22.63;14.30;;;-0.90;99.90;;;;;;5039874;28;20220;-45
2021/12/23 08:24:57;;;;;;;21.45;14.32;;;-0.80;99.90;;;;;;5039627;28;20336;-44
2021/12/23 08:27:27;;;;;;;17.23;14.00;;;-0.70;99.90;;;;;;5039457;28;20204;-43
2021/12/23 08:29:55;;;;;;;20.83;12.45;;;-0.70;99.90;;;;;;5040009;28;20228;-46
2021/12/23 08:32:23;;;;;;;22.15;13.70;;;-0.60;99.90;;;;;;5039393;28;20263;-46
2021/12/23 08:34:50;;;;;;;20.88;13.63;;;-0.60;99.90;;;;;;5040499;28;20203;-44
2021/12/23 08:37:17;;;;;;;20.77;15.45;;;-0.50;99.90;;;;;;5044210;28;20196;-44
2021/12/23 08:39:47;;;;;;;24.17;14.80;;;-0.60;99.90;;;;;;5044413;28;20290;-47
2021/12/23 08:42:15;;;;;;;20.35;14.05;;;-0.60;99.90;;;;;;5044293;28;20228;-47
2021/12/23 08:44:42;;;;;;;22.35;12.13;;;-0.60;99.90;;;;;;5043755;28;20299;-43
2021/12/23 08:47:12;;;;;;;22.90;12.85;;;-0.50;99.90;;;;;;5043080;28;20200;-44
2021/12/23 08:49:41;;;;;;;21.70;14.65;;;-0.50;99.90;;;;;;5044034;28;20288;-45
2021/12/23 08:52:08;;;;;;;21.60;13.20;;;-0.40;99.90;;;;;;5043323;28;20243;-43
2021/12/23 08:54:35;;;;;;;20.40;12.88;;;-0.30;99.90;;;;;;5043441;28;20196;-50
2021/12/23 08:57:04;;;;;;;26.42;15.95;;;-0.30;99.90;;;;;;5043079;28;20200;-44
2021/12/23 08:59:32;;;;;;;15.77;12.38;;;-0.40;99.90;;;;;;5043651;28;20208;-44
2021/12/23 09:02:00;;;;;;;18.15;10.30;;;-0.30;99.90;;;;;;5044137;28;20231;-43
2021/12/23 09:04:31;;;;;;;20.15;13.82;;;-0.40;99.90;;;;;;5043964;28;20271;-46
2021/12/23 09:06:59;;;;;;;21.50;14.93;;;-0.30;99.90;;;;;;5042641;28;20229;-43
2021/12/23 09:09:30;;;;;;;19.85;12.80;;;-0.10;99.90;;;;;;5043359;28;20302;-45
2021/12/23 09:11:59;;;;;;;19.85;13.48;;;-0.20;99.90;;;;;;5043209;28;20220;-44
2021/12/23 09:14:27;;;;;;;20.73;12.43;;;-0.20;99.90;;;;;;5043260;28;20208;-45
2021/12/23 09:16:54;;;;;;;16.48;12.32;;;-0.30;99.90;;;;;;5042998;28;20196;-47
2021/12/23 09:19:22;;;;;;;15.38;12.63;;;-0.20;99.90;;;;;;5043082;28;20254;-44
2021/12/23 09:21:49;;;;;;;18.15;13.52;;;-0.20;99.90;;;;;;5043227;28;20262;-42
2021/12/23 09:24:18;;;;;;;17.08;13.77;;;-0.10;99.90;;;;;;5042866;28;20266;-46
2021/12/23 09:26:59;;;;;;;18.83;13.25;;;-0.20;99.90;;;;;;5043732;28;20224;-46
2021/12/23 09:34:53;;;;;;;22.13;13.82;;;-0.10;99.90;;;;;;5043253;28;20518;-45
2021/12/23 09:37:22;;;;;;;22.70;13.88;;;0.00;99.90;;;;;;5043216;28;20197;-43
2021/12/23 09:39:54;;;;;;;21.95;13.85;;;0.10;99.90;;;;;;5042263;28;20445;-43
2021/12/23 09:42:31;;;;;;;19.58;13.73;;;0.20;99.90;;;;;;5042622;28;20220;-46
2021/12/23 09:45:04;;;;;;;27.58;17.20;;;0.20;99.90;;;;;;5042891;28;20502;-45
2021/12/23 09:47:33;;;;;;;21.13;15.52;;;0.20;99.90;;;;;;5042466;28;20278;-43
2021/12/23 09:50:07;;;;;;;20.10;13.23;;;0.30;99.90;;;;;;5042171;28;20228;-44
2021/12/23 09:52:38;;;;;;;22.58;14.27;;;0.30;99.90;;;;;;5042065;28;20258;-48
2021/12/23 09:55:11;;;;;;;25.42;13.05;;;0.20;99.90;;;;;;5042417;28;20200;-48
2021/12/23 09:57:39;;;;;;;23.80;14.02;;;0.10;99.90;;;;;;5042028;28;20204;-46
2021/12/23 10:00:11;;;;;;;25.58;14.60;;;0.20;99.90;;;;;;5042216;28;20226;-42
2021/12/23 10:02:42;;;;;;;26.13;16.52;;;0.20;99.90;;;;;;5042039;28;20235;-45
2021/12/23 10:05:19;;;;;;;26.67;15.43;;;0.20;99.90;;;;;;5042044;28;20200;-43
2021/12/23 10:07:48;;;;;;;21.77;14.00;;;0.20;99.90;;;;;;5042035;28;20208;-43
2021/12/23 10:10:23;;;;;;;22.80;14.38;;;0.30;99.90;;;;;;5041511;28;20251;-47
2021/12/23 10:26:48;;;;;;;33.83;17.38;;;0.30;99.90;;;;;;5041995;28;20261;-43
2021/12/23 10:30:23;;;;;;;24.75;15.98;;;0.80;99.90;;;;;;5041901;28;20220;-44
2021/12/23 10:38:23;;;;;;;33.55;17.17;;;0.90;99.90;;;;;;5041223;28;20204;-46
2021/12/23 10:40:56;;;;;;;30.23;18.70;;;0.90;99.90;;;;;;5041595;28;20219;-47
2021/12/23 10:43:27;;;;;;;26.17;16.45;;;1.10;99.90;;;;;;5041551;28;20216;-43
2021/12/23 10:45:59;;;;;;;21.30;15.98;;;1.10;99.90;;;;;;5042219;28;20255;-47
2021/12/23 10:48:31;;;;;;;25.02;16.17;;;1.10;99.90;;;;;;5041742;28;20208;-47
2021/12/23 10:51:05;;;;;;;24.80;16.33;;;1.00;99.90;;;;;;5042042;28;20537;-47
2021/12/23 10:59:11;;;;;;;26.40;15.52;;;1.00;99.90;;;;;;5040681;28;20254;-44
2021/12/23 11:02:27;;;;;;;26.10;15.82;;;1.10;99.90;;;;;;5041215;28;20224;-47
2021/12/23 11:05:06;;;;;;;26.88;14.23;;;1.10;99.90;;;;;;5069182;22;20446;-47
2021/12/23 11:07:45;;;;;;;21.75;15.07;;;1.20;99.90;;;;;;5061067;28;20241;-51
2021/12/23 11:35:50;;;;;;;34.28;19.10;;;1.70;99.90;;;;;;5040799;28;20195;-48
2021/12/23 11:38:59;;;;;;;24.70;16.50;;;1.80;99.90;;;;;;5040940;28;20255;-46
2021/12/23 11:43:58;;;;;;;23.83;16.55;;;1.70;99.90;;;;;;5041541;28;20269;-45
2021/12/23 11:46:41;;;;;;;21.58;16.13;;;1.60;99.90;;;;;;5041097;28;20200;-46
2021/12/23 11:49:12;;;;;;;31.70;16.55;;;1.60;99.90;;;;;;5040736;28;20215;-47
2021/12/23 11:54:15;;;;;;;27.67;16.80;;;2.00;99.90;;;;;;5040660;28;20558;-46
2021/12/23 11:56:53;;;;;;;27.60;17.80;;;2.20;99.90;;;;;;5040339;28;20537;-46
2021/12/23 11:59:21;;;;;;;22.55;15.80;;;1.90;99.90;;;;;;5040898;28;20215;-46
2021/12/23 12:01:54;;;;;;;30.27;16.70;;;1.90;99.90;;;;;;5040545;28;20207;-48
2021/12/23 12:04:26;;;;;;;31.20;17.70;;;2.10;99.90;;;;;;5040451;28;20228;-48
2021/12/23 12:06:54;;;;;;;24.63;16.52;;;2.10;99.90;;;;;;5040137;28;20211;-51
2021/12/23 12:09:26;;;;;;;30.38;17.40;;;2.00;99.90;;;;;;5040372;28;20448;-49
2021/12/23 12:11:59;;;;;;;22.40;15.23;;;1.90;99.90;;;;;;5040521;28;20219;-47
2021/12/23 12:14:41;;;;;;;27.95;17.73;;;1.90;99.90;;;;;;5040359;28;20278;-50
2021/12/23 12:17:26;;;;;;;30.85;17.45;;;1.80;99.90;;;;;;5040756;28;20379;-45
2021/12/23 12:20:00;;;;;;;30.00;16.75;;;1.90;99.90;;;;;;5045094;28;20204;-48
2021/12/23 12:22:45;;;;;;;25.40;18.13;;;2.00;99.90;;;;;;5046219;28;20537;-50
2021/12/23 12:25:38;;;;;;;25.58;15.98;;;2.20;99.90;;;;;;5044448;28;20228;-50
2021/12/23 12:28:05;;;;;;;28.88;15.75;;;2.50;99.90;;;;;;5044187;28;20200;-46
2021/12/23 12:30:38;;;;;;;28.77;15.80;;;2.70;99.90;;;;;;5040320;28;20220;-47
2021/12/23 12:33:29;;;;;;;23.75;15.85;;;2.50;99.90;;;;;;5040366;28;20196;-47
2021/12/23 12:36:02;;;;;;;22.55;15.05;;;2.10;99.90;;;;;;5041034;28;20211;-53
2021/12/23 12:38:33;;;;;;;22.33;14.43;;;2.10;99.90;;;;;;5041550;28;20197;-49
2021/12/23 12:41:16;;;;;;;24.98;17.08;;;2.30;99.90;;;;;;5038882;28;20242;-48
2021/12/23 12:43:48;;;;;;;22.27;14.65;;;2.40;99.90;;;;;;5039648;28;20550;-47
2021/12/23 12:46:34;;;;;;;18.67;15.10;;;2.50;99.90;;;;;;5039713;28;20510;-49
2021/12/23 12:49:26;;;;;;;25.90;14.55;;;2.40;99.90;;;;;;5039684;28;20203;-50
2021/12/23 12:52:14;;;;;;;20.42;13.75;;;2.10;99.90;;;;;;5040679;28;20196;-50
2021/12/23 12:54:46;;;;;;;21.02;13.82;;;2.00;99.90;;;;;;5045780;28;20367;-49
2021/12/23 12:57:14;;;;;;;28.15;15.23;;;2.00;99.90;;;;;;5041963;28;20188;-49
2021/12/23 12:59:43;;;;;;;24.00;16.52;;;1.70;99.90;;;;;;5039867;28;20204;-49
2021/12/23 13:02:30;;;;;;;24.50;15.15;;;1.90;99.90;;;;;;5042064;28;20214;-53
2021/12/23 13:05:02;;;;;;;29.42;17.38;;;1.80;99.90;;;;;;5044980;28;20235;-48
2021/12/23 13:07:39;;;;;;;29.00;16.65;;;1.60;99.90;;;;;;5040486;28;20204;-50
2021/12/23 13:10:15;;;;;;;23.83;14.43;;;1.50;99.90;;;;;;5039907;28;20220;-48
2021/12/23 13:12:54;;;;;;;30.33;16.95;;;1.30;99.90;;;;;;5039986;28;20652;-47
2021/12/23 13:15:25;;;;;;;23.95;16.40;;;1.20;99.90;;;;;;5038851;28;20215;-48
2021/12/23 13:18:09;;;;;;;30.08;17.80;;;1.20;99.90;;;;;;5039846;28;20201;-47
2021/12/23 13:20:47;;;;;;;25.77;17.13;;;1.20;99.90;;;;;;5039093;28;20214;-47
2021/12/23 13:23:22;;;;;;;27.48;18.38;;;1.30;99.90;;;;;;5043826;28;20224;-48
2021/12/23 13:26:01;;;;;;;29.85;16.27;;;1.50;99.90;;;;;;5043163;28;20253;-46
2021/12/23 13:28:40;;;;;;;28.73;17.83;;;1.50;99.90;;;;;;5043540;28;20231;-49
2021/12/23 13:31:21;;;;;;;30.85;17.88;;;1.60;99.90;;;;;;5043293;28;20223;-49
2021/12/23 13:33:56;;;;;;;24.00;16.27;;;1.70;99.90;;;;;;5043599;28;20216;-50
2021/12/23 13:36:30;;;;;;;27.95;16.50;;;1.80;99.90;;;;;;5043125;28;20202;-47
2021/12/23 13:39:03;;;;;;;26.13;16.13;;;1.80;99.90;;;;;;5043150;28;20200;-49
2021/12/23 13:41:36;;;;;;;26.38;17.80;;;1.80;99.90;;;;;;5043495;28;20499;-48
2021/12/23 13:44:40;;;;;;;27.50;18.20;;;1.80;99.90;;;;;;5044319;28;20216;-48
2021/12/23 13:47:17;;;;;;;26.15;18.58;;;2.20;99.90;;;;;;5040770;28;20200;-48
2021/12/23 13:49:50;;;;;;;25.73;18.35;;;2.20;99.90;;;;;;5049871;28;20219;-51
2021/12/23 13:52:40;;;;;;;23.70;16.55;;;2.10;99.90;;;;;;5049936;28;20208;-48
2021/12/23 13:55:11;;;;;;;21.58;14.93;;;2.00;99.90;;;;;;5043949;28;20215;-49
2021/12/23 13:57:46;;;;;;;26.13;14.98;;;2.10;99.90;;;;;;5041739;28;20230;-48